25405 Broadway Ave., Unit 4, Oakwood Village, OH 44146
Email: Sales@M-and-D.com
VOICE: Toll Free 866-914-1252
Toll Free FAX: 877-571-4602
Mon-Fri 9am-5pm     Sat 10am-2pm
Log In Your Cart Check Out About Us
Search by Part Number
Or Browse by Brand
Search for your part number above
... or scroll down the list below.

19633-03510: 19633-03510 Kubota Engines Part number 1963303510 / 19633-03510 BREAKER
19636-83801: 19636-83801 Kubota Engines Part number 1963683801 / 19636-83801 HYDRAULIC PUMP KIT
19639-11901: 19639-11901 Kubota Engines Part number 1963911901 / 19639-11901 KIT,3 INLET MANIFOLD
19639-80000: 19639-80000 Kubota Engines Part number 1963980000 / 19639-80000 SHORT BLOCK, V1902
19639-90000: 19639-90000 Kubota Engines Part number 1963990000 / 19639-90000 HEAD, V1902B-KTC1
19640-33640: 19640-33640 Kubota Engines Part number 1964033640 / 19640-33640 PLUG, OIL GAUGE. Replaced by: 1G51336550 / 1G513-36550 This item is part of the superseding sequence 19640-33640 > 1G513-36550
19642-01601: 19642-01601 Kubota Engines Part number 1964201601 / 19642-01601 KIT, OIL PAN
19642-25011: 19642-25011 Kubota Engines Part number 1964225011 / 19642-25011
19643-57000: 19643-57000 Kubota Engines Part number 1964357000 / 19643-57000 COMP.PLATE,SPEED CO.. Replaced by: 1964357014 / 19643-57014 This item is part of the superseding sequence 19643-57000 > 19643-57014
19643-57002: 19643-57002 Kubota Engines Part number 1964357002 / 19643-57002 COMP.PLATE,SPEED CO.. Replaced by: 1964357014 / 19643-57014 This item is part of the superseding sequence 19643-57002 > 19643-57014
19643-57010: 19643-57010 Kubota Engines Part number 1964357010 / 19643-57010 COMP.PLATE,SPEED CO.. Replaced by: 1964357014 / 19643-57014 This item is part of the superseding sequence 19643-57010 > 19643-57014
19643-57013: 19643-57013 Kubota Engines Part number 1964357013 / 19643-57013 COMP.PLATE,SPEED CO.. Replaced by: 1964357014 / 19643-57014 This item is part of the superseding sequence 19643-57013 > 19643-57014
19643-57014: 19643-57014 Kubota Engines Part number 1964357014 / 19643-57014 COMP.PLATE,SPEED CO. This item is part of the superseding sequence 19643-57013 > 19643-57014
19643-57720: 19643-57720 Kubota Engines Part number 1964357720 / 19643-57720 LEVER, STOP
19643-57740: 19643-57740 Kubota Engines Part number 1964357740 / 19643-57740 SHAFT, LEVER. Replaced by: 1687857740 / 16878-57740 This item is part of the superseding sequence 19643-57740 > 16878-57740
19643-57741: 19643-57741 Kubota Engines Part number 1964357741 / 19643-57741 SHAFT, LEVER. Replaced by: 1687857740 / 16878-57740 This item is part of the superseding sequence 19643-57741 > 16878-57740
19643-57920: 19643-57920 Kubota Engines Part number 1964357920 / 19643-57920
19643-72060: 19643-72060 Kubota Engines Part number 1964372060 / 19643-72060 RADIATOR ASSY
19643-72330: 19643-72330 Kubota Engines Part number 1964372330 / 19643-72330 SHROUD, FAN
19643-72850: 19643-72850 Kubota Engines Part number 1964372850 / 19643-72850 PIPE
19643-72852: 19643-72852 Kubota Engines Part number 1964372852 / 19643-72852 [ZM] PIPE, WATER
19643-72940: 19643-72940 Kubota Engines Part number 1964372940 / 19643-72940 PIPE
19643-72942: 19643-72942 Kubota Engines Part number 1964372942 / 19643-72942 [ZM] PIPE, WATER
19649-74470: 19649-74470 Kubota Engines Part number 1964974470 / 19649-74470 SHROUD
19653-04600: 19653-04600 Kubota Engines Part number 1965304600 / 19653-04600 [ZB] HOUSING, COMP FLYWHEEL This item is part of the superseding sequence 19653-04610 > 19653-04600
19653-04610: 19653-04610 Kubota Engines Part number 1965304610 / 19653-04610 [ZB] HOUSING, COMP FLYWHEEL. Replaced by: 1965304600 / 19653-04600 This item is part of the superseding sequence 19653-04610 > 19653-04600
19653-11570: 19653-11570 Kubota Engines Part number 1965311570 / 19653-11570 AIR CLEANER STAY
19653-25013: 19653-25013 Kubota Engines Part number 1965325013 / 19653-25013
19653-43430: 19653-43430 Kubota Engines Part number 1965343430 / 19653-43430 HOLDER, FUEL FILTER
19653-72060: 19653-72060 Kubota Engines Part number 1965372060 / 19653-72060 RADIATOR ASSY
19653-72250: 19653-72250 Kubota Engines Part number 1965372250 / 19653-72250 RADIATOR NET
19653-72330: 19653-72330 Kubota Engines Part number 1965372330 / 19653-72330 SHROUD
19653-74120: 19653-74120 Kubota Engines Part number 1965374120 / 19653-74120 COVER, FAN
19653-91020: 19653-91020 Kubota Engines Part number 1965391020 / 19653-91020 BOLT. Replaced by: 0115350870 / 01153-50870 This item is part of the superseding sequence 19653-91020 > 01153-50870
19654-72060: 19654-72060 Kubota Engines Part number 1965472060 / 19654-72060 RADIATOR ASSY
19654-72130: 19654-72130 Kubota Engines Part number 1965472130 / 19654-72130 SUPPORT, RADIATOR 1
19654-72140: 19654-72140 Kubota Engines Part number 1965472140 / 19654-72140 SUPPORT, RADIATOR 2
19654-72250: 19654-72250 Kubota Engines Part number 1965472250 / 19654-72250 NET, RADIATOR
19654-72330: 19654-72330 Kubota Engines Part number 1965472330 / 19654-72330 SHROUD, RADIATOR
19654-74120: 19654-74120 Kubota Engines Part number 1965474120 / 19654-74120 COVER, FAN
19658-56410: 19658-56410 Kubota Engines Part number 1965856410 / 19658-56410 GOV. SPRING
19659-87110: 19659-87110 Kubota Engines Part number 1965987110 / 19659-87110 ENGINE NAME PLATE
19660-25010: 19660-25010 Kubota Engines Part number 1966025010 / 19660-25010 [ZM] COMP FLYWHEEL
19660-97010: 19660-97010 Kubota Engines Part number 1966097010 / 19660-97010 [ZB] BELT FAN 37 5 COGGED. Replaced by: 1628297013 / 16282-97013 This item is part of the superseding sequence 19660-97010 > 16282-97013
19663-72530: 19663-72530 Kubota Engines Part number 1966372530 / 19663-72530 BELT, FAN
19666-04620: 19666-04620 Kubota Engines Part number 1966604620 / 19666-04620 PLATE, REAR END
19666-57000: 19666-57000 Kubota Engines Part number 1966657000 / 19666-57000
19666-57007: 19666-57007 Kubota Engines Part number 1966657007 / 19666-57007 PLATE, SPEED CONTROL (COMP). Replaced by: 1966657008 / 19666-57008 This item is part of the superseding sequence 19666-57007 > 19666-57008
19666-57008: 19666-57008 Kubota Engines Part number 1966657008 / 19666-57008 PLATE, SPEED CONTROL (COMP) This item is part of the superseding sequence 1G240-57000 > 19666-57008
19666-64370: 19666-64370 Kubota Engines Part number 1966664370 / 19666-64370 COLLAR 24 V
19666-80000: 19666-80000 Kubota Engines Part number 1966680000 / 19666-80000 SHORT BLOCK, D600
19666-90000: 19666-90000 Kubota Engines Part number 1966690000 / 19666-90000 HEAD, D600B-KTC1 ASY
19667-32430: 19667-32430 Kubota Engines Part number 1966732430 / 19667-32430 FILTER, ENG OIL
19667-52030: 19667-52030 Kubota Engines Part number 1966752030 / 19667-52030 PUMP, FUEL ASSY NA. Replaced by: 1966752034 / 19667-52034 This item is part of the superseding sequence 19667-52030 > 19667-52034
19667-52034: 19667-52034 Kubota Engines Part number 1966752034 / 19667-52034 PUMP, FUEL ASSY NA This item is part of the superseding sequence 19667-52030 > 19667-52034
19667-52040: 19667-52040 Kubota Engines Part number 1966752040 / 19667-52040 [ZM] DIAPHRAM COMP NA. Replaced by: 1966752042 / 19667-52042 This item is part of the superseding sequence 19667-52040 > 19667-52042
19667-52042: 19667-52042 Kubota Engines Part number 1966752042 / 19667-52042 [ZM] DIAPHRAM COMP NA This item is part of the superseding sequence 19667-52040 > 19667-52042
19667-53000: 19667-53000 Kubota Engines Part number 1966753000 / 19667-53000 HOLDER, NOZZLE ASSY. Replaced by: 1G11153000 / 1G111-53000 This item is part of the superseding sequence 19667-53000 > 1G111-53000
19667-99050: 19667-99050 Kubota Engines Part number 1966799050 / 19667-99050 PACKING KIT
19668-12261: 19668-12261 Kubota Engines Part number 1966812261 / 19668-12261 KIT,EXHAUST MANIFOLD
19668-72801: 19668-72801 Kubota Engines Part number 1966872801 / 19668-72801 KIT, WATER FLANGE
19668-83431: 19668-83431 Kubota Engines Part number 1966883431 / 19668-83431 KIT, ELEC HR. METER
19668-83801: 19668-83801 Kubota Engines Part number 1966883801 / 19668-83801 KIT,HYD.PUMP
19668-84510: 19668-84510 Kubota Engines Part number 1966884510 / 19668-84510 STUB SHAFT
19668-84511: 19668-84511 Kubota Engines Part number 1966884511 / 19668-84511 STUB SHAFT
19669-01601: 19669-01601 Kubota Engines Part number 1966901601 / 19669-01601 KIT, OIL PAN
19669-06110: 19669-06110 Kubota Engines Part number 1966906110 / 19669-06110
19669-11901: 19669-11901 Kubota Engines Part number 1966911901 / 19669-11901 KIT, 1 INLET MANIFOLD
19669-25010: 19669-25010 Kubota Engines Part number 1966925010 / 19669-25010 FLYWHEEL, COMP.
19669-25012: 19669-25012 Kubota Engines Part number 1966925012 / 19669-25012 [ZM] COMP FLYWHEEL
19669-25015: 19669-25015 Kubota Engines Part number 1966925015 / 19669-25015 [ZM] COMP FLYWHEEL
19669-32601: 19669-32601 Kubota Engines Part number 1966932601 / 19669-32601 KIT,REMOTE OIL FILTER 02/03 SERIES This item is part of the superseding sequence 70000-99800 > 19669-32601
19669-42500: 19669-42500 Kubota Engines Part number 1966942500 / 19669-42500 OVRFLOW PIPE (STEEL) This item is part of the superseding sequence 19669-42501 > 19669-42500
19669-42501: 19669-42501 Kubota Engines Part number 1966942501 / 19669-42501 OVRFLOW PIPE (STEEL). Replaced by: 1966942500 / 19669-42500 This item is part of the superseding sequence 19669-42501 > 19669-42500
19669-63600: 19669-63600 Kubota Engines Part number 1966963600 / 19669-63600 KIT,CONTROL BOX
19669-74011: 19669-74011 Kubota Engines Part number 1966974011 / 19669-74011
19669-80000: 19669-80000 Kubota Engines Part number 1966980000 / 19669-80000 SHORT BLOCK, D1402
19669-84510: 19669-84510 Kubota Engines Part number 1966984510 / 19669-84510 STUB SHAFT This item is part of the superseding sequence 19669-84511 > 19669-84510
19669-84511: 19669-84511 Kubota Engines Part number 1966984511 / 19669-84511 STUB SHAFT. Replaced by: 1966984510 / 19669-84510 This item is part of the superseding sequence 19669-84511 > 19669-84510
19669-90000: 19669-90000 Kubota Engines Part number 1966990000 / 19669-90000 HEAD, D1402B-KTC1
19670-33310: 19670-33310 Kubota Engines Part number 1967033310 / 19670-33310 COMP. PIPE
19670-36410: 19670-36410 Kubota Engines Part number 1967036410 / 19670-36410 GAUGE, OIL
19670-36412: 19670-36412 Kubota Engines Part number 1967036412 / 19670-36412 GAUGE,OIL
19670-36420: 19670-36420 Kubota Engines Part number 1967036420 / 19670-36420 GUIDE, OIL GAUGE
19670-52640: 19670-52640 Kubota Engines Part number 1967052640 / 19670-52640 HOLDER
19670-52660: 19670-52660 Kubota Engines Part number 1967052660 / 19670-52660 SHAFT, CAM
19670-95790: 19670-95790 Kubota Engines Part number 1967095790 / 19670-95790 BOLT, JOINT
19679-36410: 19679-36410 Kubota Engines Part number 1967936410 / 19679-36410 OIL GAUGE LONGHANDLE
19679-57150: 19679-57150 Kubota Engines Part number 1967957150 / 19679-57150 THROTTLE LEVER
19679-57700: 19679-57700 Kubota Engines Part number 1967957700 / 19679-57700
19679-57710: 19679-57710 Kubota Engines Part number 1967957710 / 19679-57710 SHAFT, STOP LEVER
19679-57720: 19679-57720 Kubota Engines Part number 1967957720 / 19679-57720 STOP LEVER
19679-57740: 19679-57740 Kubota Engines Part number 1967957740 / 19679-57740
19679-74110: 19679-74110 Kubota Engines Part number 1967974110 / 19679-74110 SUCTION FAN (360MM) This item is part of the superseding sequence 19679-74111 > 19679-74110
19679-74111: 19679-74111 Kubota Engines Part number 1967974111 / 19679-74111 SUCTION FAN (360MM). Replaced by: 1967974110 / 19679-74110 This item is part of the superseding sequence 19679-74111 > 19679-74110
19681-25012: 19681-25012 Kubota Engines Part number 1968125012 / 19681-25012 COMP FLYWHEEL Z600BG
19681-72003: 19681-72003 Kubota Engines Part number 1968172003 / 19681-72003 KIT, A11 WHOLEGOODS
19682-04020: 19682-04020 Kubota Engines Part number 1968204020 / 19682-04020 [ZM] COMP CASE GEAR. Replaced by: H196004020 / H1960-04020 This item is part of the superseding sequence 19682-04020 > H1960-04020
19682-25000: 19682-25000 Kubota Engines Part number 1968225000 / 19682-25000 KIT,FLYWHEEL
19682-25010: 19682-25010 Kubota Engines Part number 1968225010 / 19682-25010
19682-51010: 19682-51010 Kubota Engines Part number 1968251010 / 19682-51010 INJ. PUMP ASSY
19682-56410: 19682-56410 Kubota Engines Part number 1968256410 / 19682-56410 SPRING, GOVERNOR This item is part of the superseding sequence 19682-56411 > 19682-56410
19682-56411: 19682-56411 Kubota Engines Part number 1968256411 / 19682-56411 SPRING, GOVERNOR. Replaced by: 1968256410 / 19682-56410 This item is part of the superseding sequence 19682-56411 > 19682-56410
19682-72000: 19682-72000 Kubota Engines Part number 1968272000 / 19682-72000 RADIATOR KIT
19682-72002: 19682-72002 Kubota Engines Part number 1968272002 / 19682-72002 KIT, A12 WHOLEGOODS
19682-72130: 19682-72130 Kubota Engines Part number 1968272130 / 19682-72130 RADIATOR SUPPORT
19682-98060: 19682-98060 Kubota Engines Part number 1968298060 / 19682-98060 COVER
19682-98062: 19682-98062 Kubota Engines Part number 1968298062 / 19682-98062 COVER
19683-57700: 19683-57700 Kubota Engines Part number 1968357700 / 19683-57700 COMP. LEVER, STOP
19683-57710: 19683-57710 Kubota Engines Part number 1968357710 / 19683-57710 SHAFT. Replaced by: H196057710 / H1960-57710 This item is part of the superseding sequence 19683-57710 > H1960-57710
19683-57740: 19683-57740 Kubota Engines Part number 1968357740 / 19683-57740 ASSY.LEVER,ENG.STOP. Replaced by: 1980557700 / 19805-57700 This item is part of the superseding sequence 19683-57740 > 19805-57700
19683-87110: 19683-87110 Kubota Engines Part number 1968387110 / 19683-87110 ENGINE NAME PLATE
19683-87112: 19683-87112 Kubota Engines Part number 1968387112 / 19683-87112 NAME PLATE
19684-16170: 19684-16170 Kubota Engines Part number 1968416170 / 19684-16170 FUEL CAMSHAFT
19684-16320: 19684-16320 Kubota Engines Part number 1968416320 / 19684-16320 FUEL CAMSHFT STOPPER
19684-24250: 19684-24250 Kubota Engines Part number 1968424250 / 19684-24250 IDLE GEAR SHAFT
19684-25010: 19684-25010 Kubota Engines Part number 1968425010 / 19684-25010
19684-51010: 19684-51010 Kubota Engines Part number 1968451010 / 19684-51010 ASSY INJECT PUMP
19684-51030: 19684-51030 Kubota Engines Part number 1968451030 / 19684-51030 DELIVERY, VALUE
19684-55060: 19684-55060 Kubota Engines Part number 1968455060 / 19684-55060 GOV. WEIGHT ASSY
19684-56410: 19684-56410 Kubota Engines Part number 1968456410 / 19684-56410 SPRING, GOVERNOR 1
19684-72850: 19684-72850 Kubota Engines Part number 1968472850 / 19684-72850 WATER PIPE V/11/1200 This item is part of the superseding sequence 19684-72851 > 19684-72850
19684-72851: 19684-72851 Kubota Engines Part number 1968472851 / 19684-72851 WATER PIPE V/11/1200. Replaced by: 1968472850 / 19684-72850 This item is part of the superseding sequence 19684-72851 > 19684-72850
19684-99340: 19684-99340 Kubota Engines Part number 1968499340 / 19684-99340 ASSY GEAR,IDLE
19694-56410: 19694-56410 Kubota Engines Part number 1969456410 / 19694-56410 GOVERNOR SPRING 2
19698-73342: 19698-73342 Kubota Engines Part number 1969873342 / 19698-73342 PIPE, WATER RETURN
19701-25010: 19701-25010 Kubota Engines Part number 1970125010 / 19701-25010 COMP. FLYWHEEL
19701-25017: 19701-25017 Kubota Engines Part number 1970125017 / 19701-25017 [ZM] COMP.FLYWHEEL
19701-51010: 19701-51010 Kubota Engines Part number 1970151010 / 19701-51010 ASSY. PUMP, INJ.
19701-51012: 19701-51012 Kubota Engines Part number 1970151012 / 19701-51012 PUMP, INJECTION ASSY. Replaced by: 1970151013 / 19701-51013 This item is part of the superseding sequence 19701-51012 > 19701-51013
19701-51013: 19701-51013 Kubota Engines Part number 1970151013 / 19701-51013 PUMP, INJECTION ASSY This item is part of the superseding sequence 19701-51012 > 19701-51013
19701-54020: 19701-54020 Kubota Engines Part number 1970154020 / 19701-54020 APPARATUS, FUEL
19701-74940: 19701-74940 Kubota Engines Part number 1970174940 / 19701-74940 BOLT, TENSION This item is part of the superseding sequence 14971-74940 > 19701-74940
19701-96850: 19701-96850 Kubota Engines Part number 1970196850 / 19701-96850 O-RING
19701-97010: 19701-97010 Kubota Engines Part number 1970197010 / 19701-97010 [ZB] BELT, FAN
19704-04710: 19704-04710 Kubota Engines Part number 1970404710 / 19704-04710
19704-12110: 19704-12110 Kubota Engines Part number 1970412110 / 19704-12110 [IC] MUFFLER
19704-36110: 19704-36110 Kubota Engines Part number 1970436110 / 19704-36110 HOLDER,OIL SIGNAL. Replaced by: 1970436112 / 19704-36112 This item is part of the superseding sequence 19704-36110 > 19704-36112
19704-36112: 19704-36112 Kubota Engines Part number 1970436112 / 19704-36112 HOLDER,OIL SIGNAL This item is part of the superseding sequence 19704-36110 > 19704-36112
19704-72060: 19704-72060 Kubota Engines Part number 1970472060 / 19704-72060 RADIATOR, ASSY.
19704-73130: 19704-73130 Kubota Engines Part number 1970473130 / 19704-73130 [ZM] DRAIN PIPE
19704-83040: 19704-83040 Kubota Engines Part number 1970483040 / 19704-83040 SWITCH, THERMO
19704-84010: 19704-84010 Kubota Engines Part number 1970484010 / 19704-84010 V-PULLEY (130)
19704-88110: 19704-88110 Kubota Engines Part number 1970488110 / 19704-88110 NAME PLATE
19704-88114: 19704-88114 Kubota Engines Part number 1970488114 / 19704-88114 NAME PLATE EL300AR E
19704-89150: 19704-89150 Kubota Engines Part number 1970489150 / 19704-89150 OPR MNL EL300AR. Replaced by: 1970489156 / 19704-89156 This item is part of the superseding sequence 19704-89150 > 19704-89156
19704-89151: 19704-89151 Kubota Engines Part number 1970489151 / 19704-89151 OPR MNL EL300AR. Replaced by: 1970489156 / 19704-89156 This item is part of the superseding sequence 19704-89151 > 19704-89156
19704-89152: 19704-89152 Kubota Engines Part number 1970489152 / 19704-89152 OPR MNL EL300AR. Replaced by: 1970489156 / 19704-89156 This item is part of the superseding sequence 19704-89152 > 19704-89156
19704-89153: 19704-89153 Kubota Engines Part number 1970489153 / 19704-89153 OPR MNL EL300AR. Replaced by: 1970489156 / 19704-89156 This item is part of the superseding sequence 19704-89153 > 19704-89156
19704-89154: 19704-89154 Kubota Engines Part number 1970489154 / 19704-89154 OPR MNL EL300AR. Replaced by: 1970489156 / 19704-89156 This item is part of the superseding sequence 19704-89154 > 19704-89156
19704-89156: 19704-89156 Kubota Engines Part number 1970489156 / 19704-89156 OPR MNL EL300AR This item is part of the superseding sequence 19704-89152 > 19704-89156
19804-51010: 19804-51010 Kubota Engines Part number 1980451010 / 19804-51010 [ZM] ASSY PUMP, INJECTION
19804-64420: 19804-64420 Kubota Engines Part number 1980464420 / 19804-64420 STAY
19804-74150: 19804-74150 Kubota Engines Part number 1980474150 / 19804-74150 COLLAR, FAN
19804-95730: 19804-95730 Kubota Engines Part number 1980495730 / 19804-95730 JOINT,PIPE (2)
19805-36410: 19805-36410 Kubota Engines Part number 1980536410 / 19805-36410 OIL GAUGE
19805-36420: 19805-36420 Kubota Engines Part number 1980536420 / 19805-36420 GUIDE, OIL GAUGE
19805-57700: 19805-57700 Kubota Engines Part number 1980557700 / 19805-57700 ASSY.LEVER,ENG.STOP This item is part of the superseding sequence 19683-57740 > 19805-57700
19805-57720: 19805-57720 Kubota Engines Part number 1980557720 / 19805-57720 LEVER, ENG. STOP
19805-72530: 19805-72530 Kubota Engines Part number 1980572530 / 19805-72530 [ZB] BELT, FAN
19805-72700: 19805-72700 Kubota Engines Part number 1980572700 / 19805-72700 COMP. FLANGE WATER
19805-73030: 19805-73030 Kubota Engines Part number 1980573030 / 19805-73030 PUMP, WATER
19805-73520: 19805-73520 Kubota Engines Part number 1980573520 / 19805-73520 FLANGE, WATER PUMP. Replaced by: 1553473520 / 15534-73520 This item is part of the superseding sequence 19805-73520 > 15534-73520
19805-73550: 19805-73550 Kubota Engines Part number 1980573550 / 19805-73550
19808-25010: 19808-25010 Kubota Engines Part number 1980825010 / 19808-25010 [ZM] COMP.FLYWHEEL
19808-25012: 19808-25012 Kubota Engines Part number 1980825012 / 19808-25012 COMP.FLYWHEEL D1402B
19808-25015: 19808-25015 Kubota Engines Part number 1980825015 / 19808-25015 [ZM] COMP.FLYWHEEL
19808-51010: 19808-51010 Kubota Engines Part number 1980851010 / 19808-51010 INJECTION PUMP ASSY
19808-56410: 19808-56410 Kubota Engines Part number 1980856410 / 19808-56410 [ZM] SPRING, GOVERNOR
19808-56420: 19808-56420 Kubota Engines Part number 1980856420 / 19808-56420 SPRING, GOVERNOR
19808-80000: 19808-80000 Kubota Engines Part number 1980880000 / 19808-80000 SHORT BLOCK
19810-56050: 19810-56050 Kubota Engines Part number 1981056050 / 19810-56050
19818-04020: 19818-04020 Kubota Engines Part number 1981804020 / 19818-04020 COMP GEAR CASE
19818-04130: 19818-04130 Kubota Engines Part number 1981804130 / 19818-04130 GASKET GEARCASE
19818-04132: 19818-04132 Kubota Engines Part number 1981804132 / 19818-04132 GASKET, GEARCASE NA. Replaced by: 1708904130 / 17089-04130 This item is part of the superseding sequence 19818-04132 > 17089-04130
19818-24250: 19818-24250 Kubota Engines Part number 1981824250 / 19818-24250 IDLE GEAR SHAFT
19818-25000: 19818-25000 Kubota Engines Part number 1981825000 / 19818-25000 KIT,FLYWHEEL
19818-25010: 19818-25010 Kubota Engines Part number 1981825010 / 19818-25010 [ZM] COMP FLYWHEEL This item is part of the superseding sequence 19818-25013 > 19818-25010
19818-25013: 19818-25013 Kubota Engines Part number 1981825013 / 19818-25013 [ZM] COMP FLYWHEEL. Replaced by: 1981825010 / 19818-25010 This item is part of the superseding sequence 19818-25013 > 19818-25010
19818-25016: 19818-25016 Kubota Engines Part number 1981825016 / 19818-25016 COMP.FLYWHEEL
19818-51150: 19818-51150 Kubota Engines Part number 1981851150 / 19818-51150 INJ. PUMP GEAR
19818-54100: 19818-54100 Kubota Engines Part number 1981854100 / 19818-54100
19818-54120: 19818-54120 Kubota Engines Part number 1981854120 / 19818-54120 BOLT, ADJUSTING
19818-54260: 19818-54260 Kubota Engines Part number 1981854260 / 19818-54260 SPRING
19818-55060: 19818-55060 Kubota Engines Part number 1981855060 / 19818-55060 COMP GOV. WEIGHT
19818-55260: 19818-55260 Kubota Engines Part number 1981855260 / 19818-55260 SHAFT, GOV WEIGHT
19818-55270: 19818-55270 Kubota Engines Part number 1981855270 / 19818-55270 GOV. WEIGHT HOLDER
19818-55340: 19818-55340 Kubota Engines Part number 1981855340 / 19818-55340 WASHER
19818-55380: 19818-55380 Kubota Engines Part number 1981855380 / 19818-55380 WEIGHT SHAFT BUSHING
19818-55450: 19818-55450 Kubota Engines Part number 1981855450 / 19818-55450 GOV. SLEEVE
19818-55460: 19818-55460 Kubota Engines Part number 1981855460 / 19818-55460 THRUST WASHER
19818-55510: 19818-55510 Kubota Engines Part number 1981855510 / 19818-55510 COLLAR
19818-55600: 19818-55600 Kubota Engines Part number 1981855600 / 19818-55600 BRG BALL RADIAL6/16
19818-56040: 19818-56040 Kubota Engines Part number 1981856040 / 19818-56040 COMP. FORK LEVER
19818-56130: 19818-56130 Kubota Engines Part number 1981856130 / 19818-56130 FORK LEVER
19818-56150: 19818-56150 Kubota Engines Part number 1981856150 / 19818-56150 FORK LEVER SHAFT
19818-56230: 19818-56230 Kubota Engines Part number 1981856230 / 19818-56230 FORK LEVER HOLDER
19818-56280: 19818-56280 Kubota Engines Part number 1981856280 / 19818-56280 PIN, START SPRING
19818-56480: 19818-56480 Kubota Engines Part number 1981856480 / 19818-56480 START SPRING
19818-57700: 19818-57700 Kubota Engines Part number 1981857700 / 19818-57700 ASSY LEVER, ENG,STOP
19818-57702: 19818-57702 Kubota Engines Part number 1981857702 / 19818-57702 ASSY LEVER
19818-74150: 19818-74150 Kubota Engines Part number 1981874150 / 19818-74150 [ZB] COLLAR, FAN 12MM This item is part of the superseding sequence 16661-74150 > 19818-74150
19818-87110: 19818-87110 Kubota Engines Part number 1981887110 / 19818-87110 LABEL, NAME PLATE
19818-88880: 19818-88880 Kubota Engines Part number 1981888880 / 19818-88880 LABEL, STARTER SW.
19819-04023: 19819-04023 Kubota Engines Part number 1981904023 / 19819-04023 COMP. CASE, GEAR
19819-04025: 19819-04025 Kubota Engines Part number 1981904025 / 19819-04025 COMP. CASE, GEAR
19819-04130: 19819-04130 Kubota Engines Part number 1981904130 / 19819-04130 GASKET,GEAR CASE NA. Replaced by: 1529604132 / 15296-04132 This item is part of the superseding sequence 19819-04130 > 15296-04132
19819-04132: 19819-04132 Kubota Engines Part number 1981904132 / 19819-04132 GASKET,GEAR CASE NA. Replaced by: 1529604132 / 15296-04132 This item is part of the superseding sequence 19819-04132 > 15296-04132
19819-25012: 19819-25012 Kubota Engines Part number 1981925012 / 19819-25012 FLYWHEEL COMP.
19819-51010: 19819-51010 Kubota Engines Part number 1981951010 / 19819-51010 PUMP, INJ. ASSY
19821-01012: 19821-01012 Kubota Engines Part number 1982101012 / 19821-01012 CRANKCASE ASSY.
19821-05510: 19821-05510 Kubota Engines Part number 1982105510 / 19821-05510 PIPE, BREATHER This item is part of the superseding sequence 19202-05522 > 19821-05510
19821-11760: 19821-11760 Kubota Engines Part number 1982111760 / 19821-11760 MANIFOLD, INLET
19821-12312: 19821-12312 Kubota Engines Part number 1982112312 / 19821-12312 MANIFOLD EXHAUST. Replaced by: 1666112310 / 16661-12310 This item is part of the superseding sequence 19821-12312 > 16661-12310
19821-21110: 19821-21110 Kubota Engines Part number 1982121110 / 19821-21110 PISTON, (HIGH COMP)
19821-21910: 19821-21910 Kubota Engines Part number 1982121910 / 19821-21910 PISTON +0.5
19821-42510: 19821-42510 Kubota Engines Part number 1982142510 / 19821-42510 OVER FLOW PIPE
19821-53710: 19821-53710 Kubota Engines Part number 1982153710 / 19821-53710 PIPE,INJECTION 1
19821-53720: 19821-53720 Kubota Engines Part number 1982153720 / 19821-53720 PIPE,INJECTION 2
19821-53730: 19821-53730 Kubota Engines Part number 1982153730 / 19821-53730 PIPE, INJECTION 3
19821-53740: 19821-53740 Kubota Engines Part number 1982153740 / 19821-53740 PIPE, INJECTION 4
19821-56420: 19821-56420 Kubota Engines Part number 1982156420 / 19821-56420 GOV. SPRING
19821-57700: 19821-57700 Kubota Engines Part number 1982157700 / 19821-57700 ENGINE STOP LEVER AS
19821-57702: 19821-57702 Kubota Engines Part number 1982157702 / 19821-57702 LABEL, METER. Replaced by: 1901357702 / 19013-57702 This item is part of the superseding sequence 19821-57702 > 19013-57702
19821-57740: 19821-57740 Kubota Engines Part number 1982157740 / 19821-57740 SHAFT, LEVER
19821-63020: 19821-63020 Kubota Engines Part number 1982163020 / 19821-63020 [ZM] ASSY MAGNETIC SWITCH
19821-65510: 19821-65510 Kubota Engines Part number 1982165510 / 19821-65510 GLOW PLUG. Replaced by: 1982165513 / 19821-65513 This item is part of the superseding sequence 19821-65510 > 19821-65513
19821-65513: 19821-65513 Kubota Engines Part number 1982165513 / 19821-65513 GLOW PLUG This item is part of the superseding sequence 19821-65510 > 19821-65513
19821-73030: 19821-73030 Kubota Engines Part number 1982173030 / 19821-73030 ASSY PUMP. Replaced by: 1666173037 / 16661-73037 This item is part of the superseding sequence 19821-73030 > 16661-73037
19821-99052: 19821-99052 Kubota Engines Part number 1982199052 / 19821-99052 KIT, GASKET. Replaced by: 1982199053 / 19821-99053 This item is part of the superseding sequence 19821-99052 > 19821-99053
19821-99053: 19821-99053 Kubota Engines Part number 1982199053 / 19821-99053 KIT, GASKET This item is part of the superseding sequence 19821-99052 > 19821-99053
19821-99055: 19821-99055 Kubota Engines Part number 1982199055 / 19821-99055 GASKET KIT. Replaced by: 1982199840 / 19821-99840 This item is part of the superseding sequence 19821-99055 > 19821-99840
19821-99056: 19821-99056 Kubota Engines Part number 1982199056 / 19821-99056 GASKET KIT. Replaced by: 1982199840 / 19821-99840 This item is part of the superseding sequence 19821-99056 > 19821-99840
19821-99058: 19821-99058 Kubota Engines Part number 1982199058 / 19821-99058 GASKET KIT. Replaced by: 1982199840 / 19821-99840 This item is part of the superseding sequence 19821-99058 > 19821-99840
19821-99059: 19821-99059 Kubota Engines Part number 1982199059 / 19821-99059 GASKET KIT. Replaced by: 1982199840 / 19821-99840 This item is part of the superseding sequence 19821-99059 > 19821-99840
19821-99840: 19821-99840 Kubota Engines Part number 1982199840 / 19821-99840 GASKET KIT This item is part of the superseding sequence 19821-99058 > 19821-99840
19826-03310: 19826-03310 Kubota Engines Part number 1982603310 / 19826-03310 GASKET CYL HEAD NA This item is part of the superseding sequence 14601-03310 > 19826-03310
19826-04130: 19826-04130 Kubota Engines Part number 1982604130 / 19826-04130 GASKET,GEARCASE NA
19826-04360: 19826-04360 Kubota Engines Part number 1982604360 / 19826-04360 GASKET,BRG.CASE NA
19826-04820: 19826-04820 Kubota Engines Part number 1982604820 / 19826-04820 GASKET,COVER NA This item is part of the superseding sequence 14601-04820 > 19826-04820
19826-12360: 19826-12360 Kubota Engines Part number 1982612360 / 19826-12360 GASKET,EX-MANIFLD NA
19828-72060: 19828-72060 Kubota Engines Part number 1982872060 / 19828-72060 RADIATOR
19828-73260: 19828-73260 Kubota Engines Part number 1982873260 / 19828-73260 COVER, THERMOSTAT
19828-74110: 19828-74110 Kubota Engines Part number 1982874110 / 19828-74110 SUCTION FAN (380MM)
19828-74290: 19828-74290 Kubota Engines Part number 1982874290 / 19828-74290 ADAPTER, FAN
19830-12320: 19830-12320 Kubota Engines Part number 1983012320 / 19830-12320 FLANGE, MUFFLER
19833-25010: 19833-25010 Kubota Engines Part number 1983325010 / 19833-25010 COMP FLYWHEEL
19837-12800: 19837-12800 Kubota Engines Part number 1983712800 / 19837-12800 MUFFLER FLANGE
19837-56110: 19837-56110 Kubota Engines Part number 1983756110 / 19837-56110 LEVER, GOVERNOR
19837-56112: 19837-56112 Kubota Engines Part number 1983756112 / 19837-56112 LEVER, GOVERNOR
19837-57720: 19837-57720 Kubota Engines Part number 1983757720 / 19837-57720 LEVER,ENGINE STOP This item is part of the superseding sequence 19837-57722 > 19837-57720
19837-57722: 19837-57722 Kubota Engines Part number 1983757722 / 19837-57722 LEVER,ENGINE STOP. Replaced by: 1983757720 / 19837-57720 This item is part of the superseding sequence 19837-57722 > 19837-57720
19837-57723: 19837-57723 Kubota Engines Part number 1983757723 / 19837-57723 LEVER, ENGINE STOP
19837-57920: 19837-57920 Kubota Engines Part number 1983757920 / 19837-57920 SPRING, RETURN. Replaced by: 1983757923 / 19837-57923 This item is part of the superseding sequence 19837-57920 > 19837-57923
19837-57923: 19837-57923 Kubota Engines Part number 1983757923 / 19837-57923 SPRING, RETURN This item is part of the superseding sequence 19837-57920 > 19837-57923
19837-63010: 19837-63010 Kubota Engines Part number 1983763010 / 19837-63010 ASSY STARTER. Replaced by: 1983763014 / 19837-63014 This item is part of the superseding sequence 19837-63010 > 19837-63014
19837-63014: 19837-63014 Kubota Engines Part number 1983763014 / 19837-63014 ASSY STARTER This item is part of the superseding sequence 19837-63010 > 19837-63014
19837-63030: 19837-63030 Kubota Engines Part number 1983763030 / 19837-63030 FRAME
19837-63040: 19837-63040 Kubota Engines Part number 1983763040 / 19837-63040 SWITCH, OVER RUNNING
19837-63050: 19837-63050 Kubota Engines Part number 1983763050 / 19837-63050 LEVER
19837-63070: 19837-63070 Kubota Engines Part number 1983763070 / 19837-63070 ARMATURE
19837-63080: 19837-63080 Kubota Engines Part number 1983763080 / 19837-63080 YOKE
19837-63082: 19837-63082 Kubota Engines Part number 1983763082 / 19837-63082 YOKE
19837-63150: 19837-63150 Kubota Engines Part number 1983763150 / 19837-63150 STOPPER
19837-63200: 19837-63200 Kubota Engines Part number 1983763200 / 19837-63200 [ZM] BRACKET
19837-63320: 19837-63320 Kubota Engines Part number 1983763320 / 19837-63320 BOLT
19837-64003: 19837-64003 Kubota Engines Part number 1983764003 / 19837-64003 319 24V E-SYSTEM
19837-64372: 19837-64372 Kubota Engines Part number 1983764372 / 19837-64372 COLLAR. Replaced by: 1983764374 / 19837-64374 This item is part of the superseding sequence 19837-64372 > 19837-64374
19837-64374: 19837-64374 Kubota Engines Part number 1983764374 / 19837-64374 COLLAR This item is part of the superseding sequence 19837-64372 > 19837-64374
19837-64420: 19837-64420 Kubota Engines Part number 1983764420 / 19837-64420 STAY, DYNAMO
19837-64422: 19837-64422 Kubota Engines Part number 1983764422 / 19837-64422 STAY,DYNAMO
19837-96760: 19837-96760 Kubota Engines Part number 1983796760 / 19837-96760 O-RING
19837-96780: 19837-96780 Kubota Engines Part number 1983796780 / 19837-96780 RING
19838-13860: 19838-13860 Kubota Engines Part number 1983813860 / 19838-13860
19838-65830: 19838-65830 Kubota Engines Part number 1983865830 / 19838-65830 COUPLER, ASSY
19838-72700: 19838-72700 Kubota Engines Part number 1983872700 / 19838-72700 COMP.FLANGE, WATER This item is part of the superseding sequence 19838-72910 > 19838-72700
19838-72910: 19838-72910 Kubota Engines Part number 1983872910 / 19838-72910 COMP.FLANGE, WATER. Replaced by: 1983872700 / 19838-72700 This item is part of the superseding sequence 19838-72910 > 19838-72700
19838-87110: 19838-87110 Kubota Engines Part number 1983887110 / 19838-87110
19839-21050: 19839-21050 Kubota Engines Part number 1983921050 / 19839-21050 RINGS, PISTON
19839-72440: 19839-72440 Kubota Engines Part number 1983972440 / 19839-72440 RUBBER,HOSE
19841-03040: 19841-03040 Kubota Engines Part number 1984103040 / 19841-03040 COMP CYLINDER HEAD
19841-06110: 19841-06110 Kubota Engines Part number 1984106110 / 19841-06110 ENGINE STAND 1
19841-06120: 19841-06120 Kubota Engines Part number 1984106120 / 19841-06120 ENGINE STAND 2
19841-52001: 19841-52001 Kubota Engines Part number 1984152001 / 19841-52001 [ZB] KIT, ELEC FUEL PUMP This item is part of the superseding sequence 70000-99600 > 19841-52001
19841-74280: 19841-74280 Kubota Engines Part number 1984174280 / 19841-74280 CRANK PULLEY, V/POLY
19841-84510: 19841-84510 Kubota Engines Part number 1984184510 / 19841-84510 SHAFT PULLEY
19844-14590: 19844-14590 Kubota Engines Part number 1984414590 / 19844-14590 CYL HEAD COVER
19844-33610: 19844-33610 Kubota Engines Part number 1984433610 / 19844-33610 PIN PLUG
19844-36410: 19844-36410 Kubota Engines Part number 1984436410 / 19844-36410 OIL GAUGE
19844-36420: 19844-36420 Kubota Engines Part number 1984436420 / 19844-36420 OIL GAUGE GUIDE
19844-36450: 19844-36450 Kubota Engines Part number 1984436450 / 19844-36450 STAY,OIL GAUGE GUIDE
19844-52030: 19844-52030 Kubota Engines Part number 1984452030 / 19844-52030 FUEL PUMP ASSY This item is part of the superseding sequence 19293-52031 > 19844-52030
19844-52040: 19844-52040 Kubota Engines Part number 1984452040 / 19844-52040 DIAPHRAGM NA This item is part of the superseding sequence 19293-52040 > 19844-52040
19844-64010: 19844-64010 Kubota Engines Part number 1984464010 / 19844-64010 DYNAMO ASSY This item is part of the superseding sequence 19844-64011 > 19844-64010
19844-64011: 19844-64011 Kubota Engines Part number 1984464011 / 19844-64011 DYNAMO ASSY. Replaced by: 1984464010 / 19844-64010 This item is part of the superseding sequence 19844-64011 > 19844-64010
19844-64600: 19844-64600 Kubota Engines Part number 1984464600 / 19844-64600 REGULATOR
19844-65770: 19844-65770 Kubota Engines Part number 1984465770 / 19844-65770 TERMINAL, (M)
19844-65890: 19844-65890 Kubota Engines Part number 1984465890 / 19844-65890 CONNECTOR
19844-99050: 19844-99050 Kubota Engines Part number 1984499050 / 19844-99050 PACKING KIT
19845-36410: 19845-36410 Kubota Engines Part number 1984536410 / 19845-36410 OIL GAUGE
19845-36450: 19845-36450 Kubota Engines Part number 1984536450 / 19845-36450 OIL GAUGE GUIDE STAY
19845-64690: 19845-64690 Kubota Engines Part number 1984564690 / 19845-64690 COVER,DYNAMO
19845-72530: 19845-72530 Kubota Engines Part number 1984572530 / 19845-72530 [ZB] FAN BELT This item is part of the superseding sequence 19845-72531 > 19845-72530
19845-72531: 19845-72531 Kubota Engines Part number 1984572531 / 19845-72531 [ZB] FAN BELT. Replaced by: 1984572530 / 19845-72530 This item is part of the superseding sequence 19845-72531 > 19845-72530
19845-99050: 19845-99050 Kubota Engines Part number 1984599050 / 19845-99050 PACKING KIT
19846-74290: 19846-74290 Kubota Engines Part number 1984674290 / 19846-74290 FLANGE, PULLEY
19847-72940: 19847-72940 Kubota Engines Part number 1984772940 / 19847-72940 WATER PIPE
19847-72942: 19847-72942 Kubota Engines Part number 1984772942 / 19847-72942 HOSE,WATER
19848-06110: 19848-06110 Kubota Engines Part number 1984806110 / 19848-06110 STAND, ENGINE
19848-55440: 19848-55440 Kubota Engines Part number 1984855440 / 19848-55440 ROLLER
19848-72940: 19848-72940 Kubota Engines Part number 1984872940 / 19848-72940 PIPE, WATER
19848-72946: 19848-72946 Kubota Engines Part number 1984872946 / 19848-72946 PIPE, WATER
19851-01010: 19851-01010 Kubota Engines Part number 1985101010 / 19851-01010 CRANKCASE, COMP
19851-01610: 19851-01610 Kubota Engines Part number 1985101610 / 19851-01610 OIL PAN
19851-11000: 19851-11000 Kubota Engines Part number 1985111000 / 19851-11000 KIT, AIR CLEANER
19851-12000: 19851-12000 Kubota Engines Part number 1985112000 / 19851-12000 KIT, MUFFLER
19851-23010: 19851-23010 Kubota Engines Part number 1985123010 / 19851-23010 CRANKSHAFT, COMP. This item is part of the superseding sequence 19881-23010 > 19851-23010
19851-25000: 19851-25000 Kubota Engines Part number 1985125000 / 19851-25000 KIT,FLYWHEEL
19851-25010: 19851-25010 Kubota Engines Part number 1985125010 / 19851-25010 COMP. FLYWHEEL This item is part of the superseding sequence 19851-25110 > 19851-25010
19851-25012: 19851-25012 Kubota Engines Part number 1985125012 / 19851-25012 [ZM] COMP FLYWHEEL
19851-25110: 19851-25110 Kubota Engines Part number 1985125110 / 19851-25110 COMP. FLYWHEEL. Replaced by: 1985125010 / 19851-25010 This item is part of the superseding sequence 19851-25110 > 19851-25010
19851-43000: 19851-43000 Kubota Engines Part number 1985143000 / 19851-43000 FUEL FILTER KIT
19851-43430: 19851-43430 Kubota Engines Part number 1985143430 / 19851-43430 FUEL FILTER HOLDER
19851-72000: 19851-72000 Kubota Engines Part number 1985172000 / 19851-72000 RADIATOR KIT
19851-72130: 19851-72130 Kubota Engines Part number 1985172130 / 19851-72130 RADIATOR SUPPORT
19851-72940: 19851-72940 Kubota Engines Part number 1985172940 / 19851-72940 WATER PIPE
19851-74120: 19851-74120 Kubota Engines Part number 1985174120 / 19851-74120 FAN COVER
19851-74150: 19851-74150 Kubota Engines Part number 1985174150 / 19851-74150 FAN COLLAR
19851-87110: 19851-87110 Kubota Engines Part number 1985187110 / 19851-87110 ENGINE NAME PLATE
19855-11010: 19855-11010 Kubota Engines Part number 1985511010 / 19855-11010 [ZM] ASSY CLEANER AIR
19855-73340: 19855-73340 Kubota Engines Part number 1985573340 / 19855-73340 PIPE 3
19855-73350: 19855-73350 Kubota Engines Part number 1985573350 / 19855-73350 WATER PIPE This item is part of the superseding sequence 15554-73340 > 19855-73350
19855-73352: 19855-73352 Kubota Engines Part number 1985573352 / 19855-73352 WATER PIPE. Replaced by: 1985573350 / 19855-73350 This item is part of the superseding sequence 19855-73352 > 19855-73350
19855-73810: 19855-73810 Kubota Engines Part number 1985573810 / 19855-73810 PLUG
19855-73830: 19855-73830 Kubota Engines Part number 1985573830 / 19855-73830 STOPPER PLUG
19858-25010: 19858-25010 Kubota Engines Part number 1985825010 / 19858-25010 FLYWHEEL
19859-04621: 19859-04621 Kubota Engines Part number 1985904621 / 19859-04621 F/W HOUS.PL/R-END
19859-04622: 19859-04622 Kubota Engines Part number 1985904622 / 19859-04622 [ZM] PLATE, REAR END
19859-25031: 19859-25031 Kubota Engines Part number 1985925031 / 19859-25031 FLYWHEEL S2800 RDA
19859-72061: 19859-72061 Kubota Engines Part number 1985972061 / 19859-72061
19861-67910: 19861-67910 Kubota Engines Part number 1986167910 / 19861-67910 CORD EARTH
19862-56411: 19862-56411 Kubota Engines Part number 1986256411 / 19862-56411 GOV.SPRING D950BG
19866-80000: 19866-80000 Kubota Engines Part number 1986680000 / 19866-80000 SHORT BLOCK, D950
19866-90000: 19866-90000 Kubota Engines Part number 1986690000 / 19866-90000 HEAD, D950B-KTC1 ASY
19867-57700: 19867-57700 Kubota Engines Part number 1986757700 / 19867-57700 LEVER, STOP ASSY
19868-25011: 19868-25011 Kubota Engines Part number 1986825011 / 19868-25011 COMP.FLYWHEEL VH1100
19868-25012: 19868-25012 Kubota Engines Part number 1986825012 / 19868-25012 [ZM] COMP.FLYWHEEL
19869-25011: 19869-25011 Kubota Engines Part number 1986925011 / 19869-25011
19871-80000: 19871-80000 Kubota Engines Part number 1987180000 / 19871-80000 SHORT BLOCK, V1200
19871-90000: 19871-90000 Kubota Engines Part number 1987190000 / 19871-90000 HEAD, V1200B-KTC ASY
19872-63010: 19872-63010 Kubota Engines Part number 1987263010 / 19872-63010 STARTER ASSY. (24V). Replaced by: 1987263013 / 19872-63013 This item is part of the superseding sequence 19872-63010 > 19872-63013
19872-63012: 19872-63012 Kubota Engines Part number 1987263012 / 19872-63012 STARTER ASSY. (24V). Replaced by: 1987263013 / 19872-63013 This item is part of the superseding sequence 19872-63012 > 19872-63013
19872-63013: 19872-63013 Kubota Engines Part number 1987263013 / 19872-63013 STARTER ASSY. (24V) This item is part of the superseding sequence 19872-63010 > 19872-63013
19872-63020: 19872-63020 Kubota Engines Part number 1987263020 / 19872-63020 SWITCH, MAGNETIC
19872-63070: 19872-63070 Kubota Engines Part number 1987263070 / 19872-63070 ARMATURE ASSY.
19872-63080: 19872-63080 Kubota Engines Part number 1987263080 / 19872-63080 YOKE
19872-63290: 19872-63290 Kubota Engines Part number 1987263290 / 19872-63290 COVER
19872-65830: 19872-65830 Kubota Engines Part number 1987265830 / 19872-65830 COUPLER ASSY (24 VOLT)
19872-65840: 19872-65840 Kubota Engines Part number 1987265840 / 19872-65840 CONNECTOR,QUICK GLOW
19872-65870: 19872-65870 Kubota Engines Part number 1987265870 / 19872-65870 SLEEVE
19872-65880: 19872-65880 Kubota Engines Part number 1987265880 / 19872-65880 CONNECTOR
19872-65930: 19872-65930 Kubota Engines Part number 1987265930 / 19872-65930 TERMINAL
19872-74300: 19872-74300 Kubota Engines Part number 1987274300 / 19872-74300 ASSY. PULLEY,TENSION This item is part of the superseding sequence 19872-74301 > 19872-74300
19872-74301: 19872-74301 Kubota Engines Part number 1987274301 / 19872-74301 ASSY. PULLEY,TENSION. Replaced by: 1987274300 / 19872-74300 This item is part of the superseding sequence 19872-74301 > 19872-74300
19872-74320: 19872-74320 Kubota Engines Part number 1987274320 / 19872-74320 PULLEY, TENSION
19872-74370: 19872-74370 Kubota Engines Part number 1987274370 / 19872-74370 WASHER, PLAIN
19875-99050: 19875-99050 Kubota Engines Part number 1987599050 / 19875-99050 GASKET KIT
19875-99052: 19875-99052 Kubota Engines Part number 1987599052 / 19875-99052 GASKET KIT
19881-01010: 19881-01010 Kubota Engines Part number 1988101010 / 19881-01010 CRANKCASE COMP.
19881-01610: 19881-01610 Kubota Engines Part number 1988101610 / 19881-01610 OIL PAN
19881-04020: 19881-04020 Kubota Engines Part number 1988104020 / 19881-04020 CASE GEAR COMP
19881-16020: 19881-16020 Kubota Engines Part number 1988116020 / 19881-16020 FUEL CAM.ASSY
19881-23010: 19881-23010 Kubota Engines Part number 1988123010 / 19881-23010 CRANKSHAFT, COMP.. Replaced by: 1985123010 / 19851-23010 This item is part of the superseding sequence 19881-23010 > 19851-23010
19881-25010: 19881-25010 Kubota Engines Part number 1988125010 / 19881-25010 FLYWHEEL COMP.
19881-32370: 19881-32370 Kubota Engines Part number 1988132370 / 19881-32370 OIL FILTER PLUG
19881-32880: 19881-32880 Kubota Engines Part number 1988132880 / 19881-32880 COVER
19881-72700: 19881-72700 Kubota Engines Part number 1988172700 / 19881-72700 WATER FLANGE COMP.
19881-74280: 19881-74280 Kubota Engines Part number 1988174280 / 19881-74280 FAN DRIVE PULLEY
19883-01620: 19883-01620 Kubota Engines Part number 1988301620 / 19883-01620 GASKET,OIL PAN NA This item is part of the superseding sequence 15881-01620 > 19883-01620
19883-63010: 19883-63010 Kubota Engines Part number 1988363010 / 19883-63010 STARTER (24VOLT)
19883-63020: 19883-63020 Kubota Engines Part number 1988363020 / 19883-63020 SWITCH, MAGNETIC
19883-63070: 19883-63070 Kubota Engines Part number 1988363070 / 19883-63070 ARMATURE
19883-63080: 19883-63080 Kubota Engines Part number 1988363080 / 19883-63080 YOKE
19883-63200: 19883-63200 Kubota Engines Part number 1988363200 / 19883-63200 FRAME, END
19883-63370: 19883-63370 Kubota Engines Part number 1988363370 / 19883-63370 BRUSH, YOKE SIDE
19883-63380: 19883-63380 Kubota Engines Part number 1988363380 / 19883-63380 HOLDER, BRUSH ASSY
19883-64000: 19883-64000 Kubota Engines Part number 1988364000 / 19883-64000 KIT, 24 VOLT ALT.
19883-64010: 19883-64010 Kubota Engines Part number 1988364010 / 19883-64010 ASSY. ALTERNATOR 24V. Replaced by: 1988364012 / 19883-64012 This item is part of the superseding sequence 19883-64010 > 19883-64012
19883-64012: 19883-64012 Kubota Engines Part number 1988364012 / 19883-64012 ASSY. ALTERNATOR 24V This item is part of the superseding sequence 19883-64010 > 19883-64012
19883-64013: 19883-64013 Kubota Engines Part number 1988364013 / 19883-64013 ASSY ALTERNATOR
19883-64020: 19883-64020 Kubota Engines Part number 1988364020 / 19883-64020 ASSY FRAME
19883-64420: 19883-64420 Kubota Engines Part number 1988364420 / 19883-64420 STAY, ALTERNATOR
19883-64600: 19883-64600 Kubota Engines Part number 1988364600 / 19883-64600 REGULATOR 24 VOLT
19883-65512: 19883-65512 Kubota Engines Part number 1988365512 / 19883-65512 GLOW PLUG, 24 VOLT
19883-65830: 19883-65830 Kubota Engines Part number 1988365830 / 19883-65830 COUPLER (24VOLT)
19883-65990: 19883-65990 Kubota Engines Part number 1988365990 / 19883-65990 TIMER,LAMP 24V
19883-73030: 19883-73030 Kubota Engines Part number 1988373030 / 19883-73030 PUMP, ASSY WATER This item is part of the superseding sequence 15881-73030 > 19883-73030
19883-73430: 19883-73430 Kubota Engines Part number 1988373430 / 19883-73430 GASKET, WATER PUMP. Replaced by: 1687173430 / 16871-73430 This item is part of the superseding sequence 19883-73430 > 16871-73430
19883-73510: 19883-73510 Kubota Engines Part number 1988373510 / 19883-73510 IMPELLER, WATER PUMP
19885-83330: 19885-83330 Kubota Engines Part number 1988583330 / 19885-83330 HR. METER SWITCH This item is part of the superseding sequence 12168-32300 > 19885-83330
19887-99050: 19887-99050 Kubota Engines Part number 1988799050 / 19887-99050 GASKET KIT
19887-99052: 19887-99052 Kubota Engines Part number 1988799052 / 19887-99052 KIT GASKET NA
19890-99350: 19890-99350 Kubota Engines Part number 1989099350 / 19890-99350 KIT GASKET U - IR
19890-99353: 19890-99353 Kubota Engines Part number 1989099353 / 19890-99353 KIT GASKET U - IR E2B
19890-99360: 19890-99360 Kubota Engines Part number 1989099360 / 19890-99360 KIT GASKET L - IR
19890-99363: 19890-99363 Kubota Engines Part number 1989099363 / 19890-99363 KIT GASKET LOWER. Replaced by: 1989099366 / 19890-99366 This item is part of the superseding sequence 19890-99363 > 19890-99366
19890-99364: 19890-99364 Kubota Engines Part number 1989099364 / 19890-99364 KIT GASKET LOWER. Replaced by: 1989099366 / 19890-99366 This item is part of the superseding sequence 19890-99364 > 19890-99366
19890-99365: 19890-99365 Kubota Engines Part number 1989099365 / 19890-99365 KIT GASKET LOWER. Replaced by: 1989099366 / 19890-99366 This item is part of the superseding sequence 19890-99365 > 19890-99366
19890-99366: 19890-99366 Kubota Engines Part number 1989099366 / 19890-99366 KIT GASKET LOWER This item is part of the superseding sequence 19890-99365 > 19890-99366
19892-25010: 19892-25010 Kubota Engines Part number 1989225010 / 19892-25010 COMP.FL-WHL D1402B This item is part of the superseding sequence 19892-25011 > 19892-25010
19892-25011: 19892-25011 Kubota Engines Part number 1989225011 / 19892-25011 COMP.FL-WHL D1402B. Replaced by: 1989225010 / 19892-25010 This item is part of the superseding sequence 19892-25011 > 19892-25010
19896-64420: 19896-64420 Kubota Engines Part number 1989664420 / 19896-64420 STAY DYNAMO. Replaced by: 1989664422 / 19896-64422 This item is part of the superseding sequence 19896-64420 > 19896-64422
19896-64422: 19896-64422 Kubota Engines Part number 1989664422 / 19896-64422 STAY DYNAMO This item is part of the superseding sequence 19896-64420 > 19896-64422
19897-64850: 19897-64850 Kubota Engines Part number 1989764850 / 19897-64850
19897-65830: 19897-65830 Kubota Engines Part number 1989765830 / 19897-65830 COUPLER
1A001-21050: 1A001-21050 Kubota Engines Part number 1A00121050 / 1A001-21050 ASSY RING PISTON This item is part of the superseding sequence 1A001-21051 > 1A001-21050
1A001-21051: 1A001-21051 Kubota Engines Part number 1A00121051 / 1A001-21051 ASSY RING PISTON. Replaced by: 1A00121050 / 1A001-21050 This item is part of the superseding sequence 1A001-21051 > 1A001-21050
1A001-21092: 1A001-21092 Kubota Engines Part number 1A00121092 / 1A001-21092 ASSY RING PISTON
1A001-43010: 1A001-43010 Kubota Engines Part number 1A00143010 / 1A001-43010 FILTER, FUEL ASSY. Replaced by: 1552143015 / 15521-43015 This item is part of the superseding sequence 1A001-43010 > 15521-43015
1A001-43100: 1A001-43100 Kubota Engines Part number 1A00143100 / 1A001-43100 FILTER. Replaced by: 1552143100 / 15521-43100 This item is part of the superseding sequence 1A001-43100 > 15521-43100
1A001-43130: 1A001-43130 Kubota Engines Part number 1A00143130 / 1A001-43130 FILTER. Replaced by: 1552143100 / 15521-43100 This item is part of the superseding sequence 1A001-43130 > 15521-43100
1A001-43150: 1A001-43150 Kubota Engines Part number 1A00143150 / 1A001-43150 RING, RETAINER This item is part of the superseding sequence 15521-43150 > 1A001-43150
1A001-43160: 1A001-43160 Kubota Engines Part number 1A00143160 / 1A001-43160 [ZB] FILTER, FUEL ELEMENT. Replaced by: 1552143160 / 15521-43160 This item is part of the superseding sequence 1A001-43160 > 15521-43160
1A001-43520: 1A001-43520 Kubota Engines Part number 1A00143520 / 1A001-43520 HANDLE,FILTER
1A001-43540: 1A001-43540 Kubota Engines Part number 1A00143540 / 1A001-43540 PLATE,THRUST
1A001-43550: 1A001-43550 Kubota Engines Part number 1A00143550 / 1A001-43550 RETAINER,HANDLE
1A001-43930: 1A001-43930 Kubota Engines Part number 1A00143930 / 1A001-43930 SPRING. Replaced by: 1552143930 / 15521-43930 This item is part of the superseding sequence 1A001-43930 > 15521-43930
1A001-56410: 1A001-56410 Kubota Engines Part number 1A00156410 / 1A001-56410 SPRING,GOVERNOR. Replaced by: 1A00156415 / 1A001-56415 This item is part of the superseding sequence 1A001-56410 > 1A001-56415
1A001-56412: 1A001-56412 Kubota Engines Part number 1A00156412 / 1A001-56412 SPRING,GOVERNOR. Replaced by: 1A00156415 / 1A001-56415 This item is part of the superseding sequence 1A001-56412 > 1A001-56415
1A001-56413: 1A001-56413 Kubota Engines Part number 1A00156413 / 1A001-56413 SPRING,GOVERNOR. Replaced by: 1A00156415 / 1A001-56415 This item is part of the superseding sequence 1A001-56413 > 1A001-56415
1A001-56415: 1A001-56415 Kubota Engines Part number 1A00156415 / 1A001-56415 SPRING,GOVERNOR This item is part of the superseding sequence 1A001-56412 > 1A001-56415
1A001-56416: 1A001-56416 Kubota Engines Part number 1A00156416 / 1A001-56416 SPRING (GOVERNOR, 1)
1A001-88430: 1A001-88430 Kubota Engines Part number 1A00188430 / 1A001-88430 [ZM] LABEL,CAUTION FUEL. Replaced by: 1687388430 / 16873-88430 This item is part of the superseding sequence 1A001-88430 > 16873-88430
1A013-03043: 1A013-03043 Kubota Engines Part number 1A01303043 / 1A013-03043 COMP.CYLINDER HEAD. Replaced by: 1A01303044 / 1A013-03044 This item is part of the superseding sequence 1A013-03043 > 1A013-03044
1A013-03044: 1A013-03044 Kubota Engines Part number 1A01303044 / 1A013-03044 COMP.CYLINDER HEAD This item is part of the superseding sequence 1A013-03043 > 1A013-03044
1A021-01620: 1A021-01620 Kubota Engines Part number 1A02101620 / 1A021-01620 GASKET, OIL PAN This item is part of the superseding sequence 17326-01620 > 1A021-01620
1A021-03140: 1A021-03140 Kubota Engines Part number 1A02103140 / 1A021-03140 COMBUSTION CHAMBER
1A021-03142: 1A021-03142 Kubota Engines Part number 1A02103142 / 1A021-03142 CHAMBER,COMBUSTION
1A021-04130: 1A021-04130 Kubota Engines Part number 1A02104130 / 1A021-04130 GASKET,GEAR CASE
1A021-05120: 1A021-05120 Kubota Engines Part number 1A02105120 / 1A021-05120 COVER,BREATHER. Replaced by: 1G74205120 / 1G742-05120 This item is part of the superseding sequence 1A021-05120 > 1G742-05120
1A021-05370: 1A021-05370 Kubota Engines Part number 1A02105370 / 1A021-05370
1A021-05430: 1A021-05430 Kubota Engines Part number 1A02105430 / 1A021-05430 GASKET, BREATHER
1A021-11720: 1A021-11720 Kubota Engines Part number 1A02111720 / 1A021-11720 CLAMP,HOSE
1A021-11820: 1A021-11820 Kubota Engines Part number 1A02111820 / 1A021-11820 GASKET,IN/MANIFOLD
1A021-11822: 1A021-11822 Kubota Engines Part number 1A02111822 / 1A021-11822 GASKET,IN/MANIFOLD This item is part of the superseding sequence 17325-11820 > 1A021-11822
1A021-12350: 1A021-12350 Kubota Engines Part number 1A02112350 / 1A021-12350 GASKET,EX/MANIFOLD
1A021-14260: 1A021-14260 Kubota Engines Part number 1A02114260 / 1A021-14260 SHAFT,ROCKER ARM This item is part of the superseding sequence 15321-14260 > 1A021-14260
1A021-14520: 1A021-14520 Kubota Engines Part number 1A02114520 / 1A021-14520 GASKET,HEAD COVER. Replaced by: 1A02114523 / 1A021-14523 This item is part of the superseding sequence 1A021-14520 > 1A021-14523
1A021-14523: 1A021-14523 Kubota Engines Part number 1A02114523 / 1A021-14523 GASKET,HEAD COVER This item is part of the superseding sequence 1A021-14520 > 1A021-14523
1A021-16010: 1A021-16010 Kubota Engines Part number 1A02116010 / 1A021-16010 ASSY CAMSHAFT
1A021-21050: 1A021-21050 Kubota Engines Part number 1A02121050 / 1A021-21050 ASSY RING,PISTON
1A021-21092: 1A021-21092 Kubota Engines Part number 1A02121092 / 1A021-21092 ASSY RING,PISTON 025
1A021-21110: 1A021-21110 Kubota Engines Part number 1A02121110 / 1A021-21110
1A021-21112: 1A021-21112 Kubota Engines Part number 1A02121112 / 1A021-21112 PISTON
1A021-21310: 1A021-21310 Kubota Engines Part number 1A02121310 / 1A021-21310 PISTON PIN This item is part of the superseding sequence 14901-21310 > 1A021-21310
1A021-21900: 1A021-21900 Kubota Engines Part number 1A02121900 / 1A021-21900
1A021-21902: 1A021-21902 Kubota Engines Part number 1A02121902 / 1A021-21902 PISTON 025
1A021-23190: 1A021-23190 Kubota Engines Part number 1A02123190 / 1A021-23190 PIN, STRAIGHT
1A021-23192: 1A021-23192 Kubota Engines Part number 1A02123192 / 1A021-23192 PIN,STRAIGHT
1A021-24110: 1A021-24110 Kubota Engines Part number 1A02124110 / 1A021-24110 GEAR,CRANKSHAFT
1A021-24250: 1A021-24250 Kubota Engines Part number 1A02124250 / 1A021-24250 SHAFT,IDLE GEAR. Replaced by: 1A02124252 / 1A021-24252 This item is part of the superseding sequence 1A021-24250 > 1A021-24252
1A021-24252: 1A021-24252 Kubota Engines Part number 1A02124252 / 1A021-24252 SHAFT,IDLE GEAR This item is part of the superseding sequence 1A021-24250 > 1A021-24252
1A021-24254: 1A021-24254 Kubota Engines Part number 1A02124254 / 1A021-24254 SHAFT,IDLE GEAR
1A021-24370: 1A021-24370 Kubota Engines Part number 1A02124370 / 1A021-24370 COLLAR
1A021-24980: 1A021-24980 Kubota Engines Part number 1A02124980 / 1A021-24980 BUSH,IDLE GEAR. Replaced by: 1A02124982 / 1A021-24982 This item is part of the superseding sequence 1A021-24980 > 1A021-24982
1A021-24982: 1A021-24982 Kubota Engines Part number 1A02124982 / 1A021-24982 BUSH,IDLE GEAR This item is part of the superseding sequence 1A021-24980 > 1A021-24982
1A021-32290: 1A021-32290 Kubota Engines Part number 1A02132290 / 1A021-32290 JOINT This item is part of the superseding sequence 15521-32293 > 1A021-32290
1A021-33110: 1A021-33110 Kubota Engines Part number 1A02133110 / 1A021-33110 FLANGE, OIL FILLER
1A021-35150: 1A021-35150 Kubota Engines Part number 1A02135150 / 1A021-35150 GASKET, OIL PUMP This item is part of the superseding sequence 15221-35150 > 1A021-35150
1A021-51660: 1A021-51660 Kubota Engines Part number 1A02151660 / 1A021-51660 GASKET,PUMP COVER NA This item is part of the superseding sequence 15221-51660 > 1A021-51660
1A021-52140: 1A021-52140 Kubota Engines Part number 1A02152140 / 1A021-52140 GASKET, FUEL PUMP NA This item is part of the superseding sequence 15263-52140 > 1A021-52140
1A021-54120: 1A021-54120 Kubota Engines Part number 1A02154120 / 1A021-54120 BOLT This item is part of the superseding sequence 15601-54120 > 1A021-54120
1A021-54160: 1A021-54160 Kubota Engines Part number 1A02154160 / 1A021-54160 APPARATUS,IDLING
1A021-54350: 1A021-54350 Kubota Engines Part number 1A02154350 / 1A021-54350 ASSY-BOLT
1A021-56020: 1A021-56020 Kubota Engines Part number 1A02156020 / 1A021-56020 COMP.LEVER
1A021-56130: 1A021-56130 Kubota Engines Part number 1A02156130 / 1A021-56130 LEVER,FORK
1A021-56133: 1A021-56133 Kubota Engines Part number 1A02156133 / 1A021-56133 LEVER,FORK
1A021-56420: 1A021-56420 Kubota Engines Part number 1A02156420 / 1A021-56420 SPRING(GOVERNOR,2). Replaced by: 1A02156422 / 1A021-56422 This item is part of the superseding sequence 1A021-56420 > 1A021-56422
1A021-56422: 1A021-56422 Kubota Engines Part number 1A02156422 / 1A021-56422 SPRING(GOVERNOR,2) This item is part of the superseding sequence 1A021-56420 > 1A021-56422
1A021-56602: 1A021-56602 Kubota Engines Part number 1A02156602 / 1A021-56602 COMP.GUIDE,SOLENOID
1A021-57150: 1A021-57150 Kubota Engines Part number 1A02157150 / 1A021-57150 LEVER,SPEED CONTROL
1A021-57210: 1A021-57210 Kubota Engines Part number 1A02157210 / 1A021-57210 GASKET(PLATE). Replaced by: 1A02157212 / 1A021-57212 This item is part of the superseding sequence 1A021-57210 > 1A021-57212
1A021-57212: 1A021-57212 Kubota Engines Part number 1A02157212 / 1A021-57212 GASKET(PLATE) This item is part of the superseding sequence 1A021-57210 > 1A021-57212
1A021-57390: 1A021-57390 Kubota Engines Part number 1A02157390 / 1A021-57390 BOLT,ADJUSTING
1A021-57700: 1A021-57700 Kubota Engines Part number 1A02157700 / 1A021-57700 ASSY LEVER,ENG.STOP. Replaced by: 1G70157700 / 1G701-57700 This item is part of the superseding sequence 1A021-57700 > 1G701-57700
1A021-57703: 1A021-57703 Kubota Engines Part number 1A02157703 / 1A021-57703 ASSY LEVER,ENG.STOP. Replaced by: 1G70157700 / 1G701-57700 This item is part of the superseding sequence 1A021-57703 > 1G701-57700
1A021-57710: 1A021-57710 Kubota Engines Part number 1A02157710 / 1A021-57710 COMP LEVER,STOP
1A021-57720: 1A021-57720 Kubota Engines Part number 1A02157720 / 1A021-57720 LEVER,ENGINE STOP
1A021-57920: 1A021-57920 Kubota Engines Part number 1A02157920 / 1A021-57920 SPRING,RETURN
1A021-60013: 1A021-60013 Kubota Engines Part number 1A02160013 / 1A021-60013 SOLENOID, STOP. Replaced by: 1A02160017 / 1A021-60017 This item is part of the superseding sequence 1A021-60013 > 1A021-60017
1A021-60014: 1A021-60014 Kubota Engines Part number 1A02160014 / 1A021-60014 SOLENOID, STOP. Replaced by: 1A02160017 / 1A021-60017 This item is part of the superseding sequence 1A021-60014 > 1A021-60017
1A021-60015: 1A021-60015 Kubota Engines Part number 1A02160015 / 1A021-60015 SOLENOID, STOP. Replaced by: 1A02160017 / 1A021-60017 This item is part of the superseding sequence 1A021-60015 > 1A021-60017
1A021-60016: 1A021-60016 Kubota Engines Part number 1A02160016 / 1A021-60016 SOLENOID, STOP. Replaced by: 1A02160017 / 1A021-60017 This item is part of the superseding sequence 1A021-60016 > 1A021-60017
1A021-60017: 1A021-60017 Kubota Engines Part number 1A02160017 / 1A021-60017 SOLENOID, STOP This item is part of the superseding sequence 1A021-60014 > 1A021-60017
1A021-63820: 1A021-63820 Kubota Engines Part number 1A02163820 / 1A021-63820 GEAR,RING
1A021-72706: 1A021-72706 Kubota Engines Part number 1A02172706 / 1A021-72706 COMP.FLANGE,WATER. Replaced by: 1A02172708 / 1A021-72708 This item is part of the superseding sequence 1A021-72706 > 1A021-72708
1A021-72708: 1A021-72708 Kubota Engines Part number 1A02172708 / 1A021-72708 COMP.FLANGE,WATER This item is part of the superseding sequence 1A021-72706 > 1A021-72708
1A021-72914: 1A021-72914 Kubota Engines Part number 1A02172914 / 1A021-72914
1A021-72920: 1A021-72920 Kubota Engines Part number 1A02172920 / 1A021-72920 GASKET, WATER FLANGE This item is part of the superseding sequence 15521-72920 > 1A021-72920
1A021-73010: 1A021-73010 Kubota Engines Part number 1A02173010 / 1A021-73010 THERMOSTAT ASSY. Replaced by: 1A02173012 / 1A021-73012 This item is part of the superseding sequence 1A021-73010 > 1A021-73012

Built Tue Aug 23 17:40:37 2016

All pages © 1997-2016 M-and-D.com